createdAt,value
2023-01-10T00:00:37.633Z,67.28
2023-01-10T00:03:04.061Z,70.85
2023-01-10T00:05:30.375Z,71.39
2023-01-10T00:07:56.718Z,71.42
2023-01-10T00:10:23.003Z,69.91
2023-01-10T00:12:49.291Z,70.71
2023-01-10T00:15:15.608Z,71.09
2023-01-10T00:17:41.911Z,74.04
2023-01-10T00:20:08.222Z,73.33
2023-01-10T00:22:34.557Z,71.55
2023-01-10T00:25:00.857Z,71.05
2023-01-10T00:27:27.147Z,72.17
2023-01-10T00:29:53.476Z,70.86
2023-01-10T00:32:19.761Z,69.11
2023-01-10T00:34:46.080Z,71.28
2023-01-10T00:37:12.421Z,73.14
2023-01-10T00:39:38.712Z,75.42
2023-01-10T00:42:05.021Z,70.83
2023-01-10T00:44:31.353Z,67.76
2023-01-10T00:46:57.673Z,68.13
2023-01-10T00:49:23.960Z,67.46
2023-01-10T00:51:50.263Z,72.09
2023-01-10T00:54:16.563Z,69.52
2023-01-10T00:56:42.862Z,69.45
2023-01-10T00:59:09.178Z,67.08
2023-01-10T01:01:35.606Z,69.92
2023-01-10T01:04:01.985Z,68.42
2023-01-10T01:06:28.313Z,72.04
2023-01-10T01:08:54.604Z,69.98
2023-01-10T01:11:20.913Z,72.00
2023-01-10T01:13:47.264Z,68.41
2023-01-10T01:16:13.582Z,67.27
2023-01-10T01:18:39.902Z,68.20
2023-01-10T01:21:06.214Z,69.41
2023-01-10T01:23:32.507Z,71.60
2023-01-10T01:25:58.795Z,73.66
2023-01-10T01:28:25.124Z,71.51
2023-01-10T01:30:51.478Z,67.57
2023-01-10T01:33:18.105Z,66.25
2023-01-10T01:35:44.512Z,66.96
2023-01-10T01:38:10.837Z,66.97
2023-01-10T01:40:37.139Z,67.22
2023-01-10T01:43:03.465Z,65.21
2023-01-10T01:45:29.771Z,67.04
2023-01-10T01:47:56.062Z,69.27
2023-01-10T01:50:22.382Z,64.81
2023-01-10T01:52:48.674Z,65.16
2023-01-10T01:55:14.975Z,68.37
2023-01-10T01:57:41.280Z,69.20
2023-01-10T02:00:07.573Z,69.72
2023-01-10T02:02:33.890Z,70.47
2023-01-10T02:05:00.261Z,69.27
2023-01-10T02:07:26.556Z,68.71
2023-01-10T02:09:52.852Z,69.68
2023-01-10T02:12:19.170Z,67.13
2023-01-10T02:14:45.459Z,68.20
2023-01-10T02:17:11.762Z,67.75
2023-01-10T02:19:38.119Z,68.40
2023-01-10T02:22:04.414Z,71.25
2023-01-10T02:24:30.734Z,69.45
2023-01-10T02:26:57.056Z,68.31
2023-01-10T02:29:23.353Z,68.12
2023-01-10T02:31:49.643Z,70.29
2023-01-10T02:34:15.959Z,68.40
2023-01-10T02:36:42.356Z,67.55
2023-01-10T02:39:08.651Z,66.69
2023-01-10T02:41:34.956Z,65.73
2023-01-10T02:44:01.258Z,65.10
2023-01-10T02:46:27.730Z,66.09
2023-01-10T02:48:54.148Z,67.15
2023-01-10T02:51:20.475Z,66.75
2023-01-10T02:53:46.774Z,65.92
2023-01-10T02:56:13.085Z,65.61
2023-01-10T02:58:39.384Z,64.73
2023-01-10T03:01:05.777Z,64.25
2023-01-10T03:03:32.139Z,64.60
2023-01-10T03:05:58.437Z,64.34
2023-01-10T03:08:24.748Z,65.49
2023-01-10T03:10:51.220Z,66.67
2023-01-10T03:13:17.538Z,66.05
2023-01-10T03:15:43.915Z,63.52
2023-01-10T03:18:10.238Z,65.54
2023-01-10T03:20:36.540Z,66.35
2023-01-10T03:23:02.831Z,67.16
2023-01-10T03:25:29.194Z,67.73
2023-01-10T03:27:55.485Z,66.93
2023-01-10T03:30:21.772Z,67.30
2023-01-10T03:32:48.100Z,66.32
2023-01-10T03:35:14.440Z,66.85
2023-01-10T03:37:40.734Z,67.46
2023-01-10T03:40:07.042Z,69.99
2023-01-10T03:42:33.336Z,69.34
2023-01-10T03:44:59.633Z,68.50
2023-01-10T03:47:25.949Z,67.25
2023-01-10T03:49:52.248Z,68.44
2023-01-10T03:52:18.569Z,66.77
2023-01-10T03:54:44.911Z,68.60
2023-01-10T03:57:11.215Z,66.26
2023-01-10T03:59:37.507Z,65.72
2023-01-10T04:02:03.920Z,66.08
2023-01-10T04:04:30.289Z,65.38
2023-01-10T04:06:56.608Z,64.11
2023-01-10T04:09:22.952Z,64.72
2023-01-10T04:11:49.245Z,65.59
2023-01-10T04:14:15.532Z,65.96
2023-01-10T04:16:41.839Z,67.75
2023-01-10T04:19:08.152Z,69.07
2023-01-10T04:21:34.434Z,71.46
2023-01-10T04:24:00.746Z,73.54
2023-01-10T04:26:27.045Z,72.42
2023-01-10T04:28:53.344Z,73.75
2023-01-10T04:31:19.726Z,72.51
2023-01-10T04:33:46.084Z,71.52
2023-01-10T04:36:12.409Z,72.96
2023-01-10T04:38:38.748Z,71.99
2023-01-10T04:41:05.043Z,71.45
2023-01-10T04:43:31.330Z,73.16
2023-01-10T04:45:57.844Z,73.27
2023-01-10T04:48:24.168Z,73.13
2023-01-10T04:50:50.491Z,73.54
2023-01-10T04:53:16.809Z,74.52
2023-01-10T04:55:43.097Z,73.65
2023-01-10T04:58:09.392Z,73.88
2023-01-10T05:00:35.707Z,73.24
2023-01-10T05:03:02.055Z,74.26
2023-01-10T05:05:28.503Z,74.05
2023-01-10T05:07:54.825Z,74.15
2023-01-10T05:10:21.127Z,74.20
2023-01-10T05:12:47.418Z,73.60
2023-01-10T05:15:13.725Z,72.67
2023-01-10T05:17:40.092Z,73.47
2023-01-10T05:20:06.391Z,72.21
2023-01-10T05:22:32.694Z,72.78
2023-01-10T05:24:58.987Z,74.13
2023-01-10T05:27:25.282Z,74.78
2023-01-10T05:29:51.605Z,72.35
2023-01-10T05:32:17.944Z,72.68
2023-01-10T05:34:44.242Z,71.80
2023-01-10T05:37:10.588Z,71.62
2023-01-10T05:39:36.883Z,71.94
2023-01-10T05:42:03.183Z,71.11
2023-01-10T05:44:29.503Z,71.71
2023-01-10T05:46:55.800Z,72.29
2023-01-10T05:49:22.103Z,71.55
2023-01-10T05:51:48.434Z,72.30
2023-01-10T05:54:14.724Z,72.45
2023-01-10T05:56:41.027Z,74.17
2023-01-10T05:59:17.060Z,72.64
2023-01-10T06:01:53.468Z,72.85
2023-01-10T06:04:19.812Z,73.35
2023-01-10T06:06:46.142Z,73.13
2023-01-10T06:09:12.447Z,73.95
2023-01-10T06:11:38.796Z,73.80
2023-01-10T06:14:05.090Z,74.33
2023-01-10T06:16:31.387Z,74.54
2023-01-10T06:18:57.721Z,74.52
2023-01-10T06:21:24.030Z,73.89
2023-01-10T06:23:50.329Z,73.35
2023-01-10T06:26:16.633Z,73.44
2023-01-10T06:28:42.916Z,72.71
2023-01-10T06:31:09.296Z,73.00
2023-01-10T06:33:35.651Z,72.66
2023-01-10T06:36:01.946Z,74.61
2023-01-10T06:38:28.288Z,74.96
2023-01-10T06:40:54.629Z,73.80
2023-01-10T06:43:20.937Z,71.26
2023-01-10T06:45:47.245Z,70.60
2023-01-10T06:48:13.596Z,70.64
2023-01-10T06:50:39.913Z,69.75
2023-01-10T06:53:06.202Z,69.86
2023-01-10T06:55:32.534Z,70.48
2023-01-10T06:57:58.834Z,70.36
2023-01-10T07:00:25.131Z,69.34
2023-01-10T07:02:51.499Z,69.93
2023-01-10T07:05:17.811Z,69.76
2023-01-10T07:07:44.115Z,69.09
2023-01-10T07:10:10.438Z,68.75
2023-01-10T07:12:36.767Z,68.57
2023-01-10T07:15:03.069Z,67.95
2023-01-10T07:17:29.382Z,68.29
2023-01-10T07:19:55.675Z,69.30
2023-01-10T07:22:21.967Z,69.61
2023-01-10T07:24:48.295Z,69.80
2023-01-10T07:27:14.595Z,68.67
2023-01-10T07:29:40.891Z,68.55
2023-01-10T07:32:07.196Z,69.04
2023-01-10T07:34:33.550Z,67.77
2023-01-10T07:36:59.855Z,68.38
2023-01-10T07:39:26.176Z,67.59
2023-01-10T07:41:53.648Z,67.90
2023-01-10T07:44:19.957Z,68.22
2023-01-10T07:46:46.335Z,69.08
2023-01-10T07:49:12.773Z,67.69
2023-01-10T07:51:39.223Z,69.95
2023-01-10T07:54:05.569Z,68.37
2023-01-10T07:56:31.887Z,67.94
2023-01-10T07:58:58.190Z,68.03
2023-01-10T08:01:24.558Z,68.91
2023-01-10T08:03:50.949Z,69.97
2023-01-10T08:06:17.265Z,70.14
2023-01-10T08:08:43.599Z,70.00
2023-01-10T08:11:09.895Z,70.11
2023-01-10T08:13:36.182Z,71.45
2023-01-10T08:16:02.562Z,70.33
2023-01-10T08:18:28.900Z,70.47
2023-01-10T08:20:55.216Z,71.65
2023-01-10T08:23:21.532Z,70.89
2023-01-10T08:25:47.843Z,71.88
2023-01-10T08:28:14.132Z,71.76
2023-01-10T08:30:40.453Z,71.23
2023-01-10T08:33:06.787Z,71.86
2023-01-10T08:35:33.093Z,72.11
2023-01-10T08:37:59.419Z,72.45
2023-01-10T08:40:25.718Z,71.50
2023-01-10T08:42:52.015Z,72.22
2023-01-10T08:45:18.342Z,71.46
2023-01-10T08:47:44.645Z,72.01
2023-01-10T08:50:10.948Z,70.92
2023-01-10T08:52:37.301Z,71.60
2023-01-10T08:55:03.763Z,70.79
2023-01-10T08:57:30.115Z,70.13
2023-01-10T08:59:56.433Z,71.68
2023-01-10T09:02:22.780Z,70.17
2023-01-10T09:04:49.124Z,69.51
2023-01-10T09:07:15.433Z,69.88
2023-01-10T09:09:41.746Z,68.41
2023-01-10T09:12:08.066Z,69.01
2023-01-10T09:14:34.380Z,68.56
2023-01-10T09:17:00.671Z,68.28
2023-01-10T09:19:26.981Z,67.99
2023-01-10T09:21:53.311Z,66.46
2023-01-10T09:24:19.585Z,67.01
2023-01-10T09:26:45.876Z,66.71
2023-01-10T09:29:12.213Z,68.84
2023-01-10T09:31:38.544Z,68.42
2023-01-10T09:34:04.907Z,68.25
2023-01-10T09:36:31.255Z,68.11
2023-01-10T09:38:57.575Z,67.97
2023-01-10T09:41:23.873Z,68.57
2023-01-10T09:43:50.175Z,67.90
2023-01-10T09:46:16.606Z,65.51
2023-01-10T09:48:42.979Z,66.73
2023-01-10T09:51:09.297Z,68.58
2023-01-10T09:53:35.603Z,66.98
2023-01-10T09:56:01.912Z,66.41
2023-01-10T09:58:28.271Z,65.75
2023-01-10T10:00:54.640Z,65.24
2023-01-10T10:03:21.267Z,65.24
2023-01-10T10:05:47.622Z,64.57
2023-01-10T10:08:13.911Z,63.49
2023-01-10T10:10:40.207Z,63.40
2023-01-10T10:13:06.876Z,65.22
2023-01-10T10:15:34.271Z,65.05
2023-01-10T10:18:00.556Z,63.38
2023-01-10T10:20:26.886Z,62.31
2023-01-10T10:22:53.607Z,63.27
2023-01-10T10:25:20.001Z,64.63
2023-01-10T10:27:46.332Z,63.59
2023-01-10T10:30:12.628Z,62.95
2023-01-10T10:32:38.928Z,64.88
2023-01-10T10:35:05.323Z,64.99
2023-01-10T10:37:31.627Z,63.94
2023-01-10T10:39:57.936Z,62.90
2023-01-10T10:42:24.238Z,61.95
2023-01-10T10:44:50.539Z,63.25
2023-01-10T10:47:16.833Z,60.07
2023-01-10T10:49:43.187Z,61.02
2023-01-10T10:52:09.490Z,60.10
2023-01-10T10:54:35.823Z,56.67
2023-01-10T10:57:02.149Z,58.15
2023-01-10T10:59:28.469Z,54.88
2023-01-10T11:01:54.857Z,55.93
2023-01-10T11:04:21.251Z,54.34
2023-01-10T11:06:47.548Z,55.04
2023-01-10T11:09:13.856Z,55.88
2023-01-10T11:11:40.167Z,53.25
2023-01-10T11:14:06.482Z,52.16
2023-01-10T11:16:32.889Z,51.37
2023-01-10T11:18:59.230Z,51.83
2023-01-10T11:21:25.532Z,51.23
2023-01-10T11:23:51.843Z,52.45
2023-01-10T11:26:18.172Z,49.39
2023-01-10T11:28:44.478Z,53.98
2023-01-10T11:31:10.765Z,57.00
2023-01-10T11:33:37.107Z,58.08
2023-01-10T11:36:03.533Z,57.49
2023-01-10T11:38:29.833Z,58.34
2023-01-10T11:40:56.164Z,57.40
2023-01-10T11:43:22.453Z,59.11
2023-01-10T11:45:48.765Z,57.36
2023-01-10T11:48:15.159Z,57.21
2023-01-10T11:50:41.461Z,55.47
2023-01-10T11:53:07.761Z,55.74
2023-01-10T11:55:34.211Z,57.48
2023-01-10T11:58:00.489Z,59.31
2023-01-10T12:00:26.769Z,54.70
2023-01-10T12:02:53.081Z,56.40
2023-01-10T12:05:19.449Z,54.27
2023-01-10T12:07:45.864Z,55.08
2023-01-10T12:10:12.215Z,54.95
2023-01-10T12:12:38.516Z,54.89
2023-01-10T12:15:04.814Z,54.51
2023-01-10T12:17:31.129Z,55.59
2023-01-10T12:19:57.433Z,57.95
2023-01-10T12:22:23.737Z,57.21
2023-01-10T12:24:50.059Z,58.55
2023-01-10T12:27:16.393Z,58.47
2023-01-10T12:29:42.694Z,57.27
2023-01-10T12:32:09.016Z,58.09
2023-01-10T12:34:35.321Z,56.76
2023-01-10T12:37:01.608Z,58.24
2023-01-10T12:39:27.926Z,59.87
2023-01-10T12:41:54.224Z,58.88
2023-01-10T12:44:20.532Z,58.39
2023-01-10T12:47:05.630Z,56.61
2023-01-10T12:49:32.515Z,57.90
2023-01-10T12:51:58.832Z,55.46
2023-01-10T12:54:25.137Z,56.31
2023-01-10T12:56:51.454Z,55.47
2023-01-10T12:59:23.719Z,57.20
2023-01-10T13:01:58.916Z,57.27
2023-01-10T13:04:25.348Z,58.78
2023-01-10T13:06:51.639Z,58.71
2023-01-10T13:09:17.979Z,57.39
2023-01-10T13:11:44.358Z,56.68
2023-01-10T13:14:11.011Z,56.29
2023-01-10T13:16:37.471Z,54.95
2023-01-10T13:19:03.856Z,54.79
2023-01-10T13:21:30.170Z,55.03
2023-01-10T13:23:56.592Z,57.53
2023-01-10T13:26:22.905Z,56.26
2023-01-10T13:28:49.222Z,55.33
2023-01-10T13:31:15.547Z,55.28
2023-01-10T13:33:42.026Z,55.95
2023-01-10T13:36:08.347Z,54.73
2023-01-10T13:38:34.672Z,55.38
2023-01-10T13:41:00.987Z,55.05
2023-01-10T13:43:27.282Z,53.06
2023-01-10T13:45:56.514Z,54.93
2023-01-10T13:48:22.852Z,53.82
2023-01-10T13:50:49.155Z,53.03
2023-01-10T13:53:15.464Z,52.26
2023-01-10T13:55:41.781Z,53.44
2023-01-10T13:58:08.097Z,53.02
2023-01-10T14:00:34.405Z,51.92
2023-01-10T14:03:00.745Z,52.29
2023-01-10T14:05:27.066Z,53.52
2023-01-10T14:07:53.381Z,53.98
2023-01-10T14:10:19.699Z,54.18
2023-01-10T14:12:45.996Z,54.82
2023-01-10T14:15:12.301Z,54.71
2023-01-10T14:17:38.637Z,55.70
2023-01-10T14:20:05.023Z,53.84
2023-01-10T14:22:31.435Z,53.13
2023-01-10T14:24:57.759Z,53.22
2023-01-10T14:27:24.067Z,54.46
2023-01-10T14:29:50.371Z,55.20
2023-01-10T14:32:16.699Z,55.35
2023-01-10T14:34:42.994Z,54.60
2023-01-10T14:37:09.298Z,56.30
2023-01-10T14:39:35.622Z,54.98
2023-01-10T14:42:01.935Z,54.44
2023-01-10T14:44:28.248Z,54.18
2023-01-10T14:46:54.563Z,53.99
2023-01-10T14:49:20.874Z,54.49
2023-01-10T14:51:47.222Z,53.90
2023-01-10T14:54:13.556Z,54.35
2023-01-10T14:56:39.878Z,54.52
2023-01-10T14:59:06.176Z,54.21
2023-01-10T15:01:32.647Z,55.36
2023-01-10T15:03:58.994Z,55.08
2023-01-10T15:06:26.161Z,54.62
2023-01-10T15:08:52.606Z,54.56
2023-01-10T15:11:18.913Z,54.63
2023-01-10T15:13:45.212Z,54.03
2023-01-10T15:16:11.618Z,53.73
2023-01-10T15:18:37.941Z,54.67
2023-01-10T15:21:04.229Z,54.22
2023-01-10T15:23:30.579Z,55.56
2023-01-10T15:25:56.875Z,54.08
2023-01-10T15:28:23.171Z,53.85
2023-01-10T15:30:49.471Z,54.11
2023-01-10T15:33:15.767Z,54.98
2023-01-10T15:35:42.065Z,55.91
2023-01-10T15:38:08.376Z,56.69
2023-01-10T15:40:34.679Z,54.93
2023-01-10T15:43:01.000Z,54.85
2023-01-10T15:45:27.339Z,55.13
2023-01-10T15:47:53.650Z,55.00
2023-01-10T15:50:19.991Z,55.04
2023-01-10T15:52:46.321Z,55.46
2023-01-10T15:55:12.637Z,56.37
2023-01-10T15:57:38.961Z,54.77
2023-01-10T16:00:05.285Z,55.54
2023-01-10T16:02:31.858Z,54.67
2023-01-10T16:04:58.298Z,54.55
2023-01-10T16:07:26.210Z,53.94
2023-01-10T16:09:53.165Z,54.87
2023-01-10T16:12:19.473Z,55.33
2023-01-10T16:14:45.835Z,54.99
2023-01-10T16:17:12.151Z,53.56
2023-01-10T16:19:38.452Z,53.77
2023-01-10T16:22:05.006Z,53.95
2023-01-10T16:24:31.372Z,54.57
2023-01-10T16:26:57.676Z,55.12
2023-01-10T16:29:24.018Z,54.94
2023-01-10T16:31:50.334Z,55.10
2023-01-10T16:34:16.629Z,54.75
2023-01-10T16:36:42.960Z,54.54
2023-01-10T16:39:09.270Z,55.07
2023-01-10T16:41:35.608Z,54.70
2023-01-10T16:44:01.918Z,54.20
2023-01-10T16:46:28.226Z,55.60
2023-01-10T16:48:54.519Z,56.17
2023-01-10T16:51:20.839Z,55.52
2023-01-10T16:53:47.171Z,55.61
2023-01-10T16:56:13.492Z,56.28
2023-01-10T16:58:39.816Z,55.40
2023-01-10T17:01:06.209Z,55.47
2023-01-10T17:03:32.603Z,56.61
2023-01-10T17:05:59.197Z,57.14
2023-01-10T17:08:25.720Z,56.78
2023-01-10T17:10:52.130Z,57.70
2023-01-10T17:13:18.448Z,57.77
2023-01-10T17:15:44.759Z,56.27
2023-01-10T17:18:11.066Z,56.34
2023-01-10T17:20:37.387Z,57.51
2023-01-10T17:23:03.687Z,57.26
2023-01-10T17:25:29.986Z,56.52
2023-01-10T17:27:56.301Z,56.29
2023-01-10T17:30:22.617Z,57.12
2023-01-10T17:32:48.926Z,56.74
2023-01-10T17:35:15.279Z,56.42
2023-01-10T17:37:41.574Z,56.60
2023-01-10T17:40:07.875Z,58.17
2023-01-10T17:42:34.234Z,57.03
2023-01-10T17:45:00.544Z,58.27
2023-01-10T17:47:26.854Z,57.96
2023-01-10T17:49:53.184Z,57.76
2023-01-10T17:52:19.465Z,57.05
2023-01-10T17:54:45.756Z,58.25
2023-01-10T17:57:12.063Z,58.33
2023-01-10T17:59:38.364Z,58.95
2023-01-10T18:02:04.819Z,59.62
2023-01-10T18:04:31.216Z,59.48
2023-01-10T18:06:57.518Z,59.40
2023-01-10T18:09:23.833Z,59.12
2023-01-10T18:11:50.173Z,59.58
2023-01-10T18:14:16.461Z,59.79
2023-01-10T18:16:42.826Z,59.10
2023-01-10T18:19:09.187Z,59.39
2023-01-10T18:21:35.510Z,58.75
2023-01-10T18:24:01.849Z,57.01
2023-01-10T18:26:28.175Z,56.03
2023-01-10T18:28:54.491Z,54.81
2023-01-10T18:31:20.882Z,54.96
2023-01-10T18:33:47.320Z,53.67
2023-01-10T18:36:13.624Z,52.27
2023-01-10T18:38:39.932Z,50.15
2023-01-10T18:41:06.290Z,51.19
2023-01-10T18:43:32.582Z,51.72
2023-01-10T18:45:58.878Z,49.70
2023-01-10T18:48:26.019Z,49.10
2023-01-10T18:50:52.375Z,48.68
2023-01-10T18:53:18.678Z,49.32
2023-01-10T18:55:45.010Z,50.51
2023-01-10T18:58:11.301Z,51.05
2023-01-10T19:00:37.596Z,50.41
2023-01-10T19:03:03.917Z,50.98
2023-01-10T19:05:30.228Z,51.36
2023-01-10T19:07:56.511Z,51.64
2023-01-10T19:10:22.842Z,51.30
2023-01-10T19:12:49.124Z,51.16
2023-01-10T19:15:15.413Z,51.71
2023-01-10T19:17:41.725Z,51.82
2023-01-10T19:20:08.017Z,51.93
2023-01-10T19:22:34.308Z,51.94
2023-01-10T19:25:00.640Z,50.99
2023-01-10T19:27:26.940Z,51.95
2023-01-10T19:29:53.231Z,51.32
2023-01-10T19:32:19.531Z,51.12
2023-01-10T19:34:46.488Z,54.46
2023-01-10T19:37:12.857Z,51.25
2023-01-10T19:39:39.168Z,52.25
2023-01-10T19:42:05.470Z,50.90
2023-01-10T19:44:31.768Z,52.08
2023-01-10T19:46:58.111Z,51.91
2023-01-10T19:49:24.439Z,51.78
2023-01-10T19:51:50.739Z,53.06
2023-01-10T19:54:17.052Z,52.11
2023-01-10T19:56:43.349Z,54.85
2023-01-10T19:59:09.646Z,54.84
2023-01-10T20:01:36.107Z,53.08
2023-01-10T20:04:02.448Z,54.26
2023-01-10T20:06:28.764Z,52.21
2023-01-10T20:08:55.123Z,53.75
2023-01-10T20:11:21.420Z,52.32
2023-01-10T20:13:47.719Z,53.19
2023-01-10T20:16:14.117Z,56.24
2023-01-10T20:18:40.471Z,52.38
2023-01-10T20:21:06.791Z,52.76
2023-01-10T20:23:33.451Z,52.42
2023-01-10T20:25:59.748Z,52.54
2023-01-10T20:28:26.062Z,53.14
2023-01-10T20:30:52.387Z,52.92
2023-01-10T20:33:18.734Z,52.02
2023-01-10T20:35:45.032Z,52.62
2023-01-10T20:38:11.358Z,53.68
2023-01-10T20:40:37.650Z,52.46
2023-01-10T20:43:03.958Z,53.38
2023-01-10T20:45:30.286Z,53.55
2023-01-10T20:47:56.575Z,54.65
2023-01-10T20:50:22.867Z,53.66
2023-01-10T20:52:49.238Z,53.24
2023-01-10T20:55:15.540Z,54.99
2023-01-10T20:57:41.835Z,54.65
2023-01-10T21:00:08.171Z,54.15
2023-01-10T21:02:34.517Z,54.28
2023-01-10T21:05:00.835Z,54.27
2023-01-10T21:07:27.151Z,54.85
2023-01-10T21:09:53.435Z,54.52
2023-01-10T21:12:23.430Z,54.40
2023-01-10T21:14:50.406Z,54.59
2023-01-10T21:17:16.707Z,55.96
2023-01-10T21:19:43.021Z,57.11
2023-01-10T21:22:09.340Z,57.45
2023-01-10T21:24:35.647Z,56.90
2023-01-10T21:27:01.958Z,55.88
2023-01-10T21:29:28.282Z,56.33
2023-01-10T21:31:54.605Z,55.86
2023-01-10T21:34:20.930Z,56.44
2023-01-10T21:36:47.241Z,55.83
2023-01-10T21:39:13.546Z,56.29
2023-01-10T21:41:39.834Z,55.78
2023-01-10T21:44:06.142Z,55.06
2023-01-10T21:46:32.464Z,54.81
2023-01-10T21:48:58.799Z,55.21
2023-01-10T21:51:25.114Z,55.01
2023-01-10T21:53:51.425Z,54.96
2023-01-10T21:56:17.718Z,56.48
2023-01-10T21:58:44.052Z,54.67
2023-01-10T22:01:10.387Z,55.18
2023-01-10T22:03:36.743Z,55.01
2023-01-10T22:06:03.111Z,56.79
2023-01-10T22:08:29.413Z,56.05
2023-01-10T22:10:55.781Z,54.70
2023-01-10T22:13:22.087Z,55.84
2023-01-10T22:15:48.398Z,56.58
2023-01-10T22:18:14.689Z,58.61
2023-01-10T22:20:40.999Z,59.47
2023-01-10T22:23:07.289Z,60.84
2023-01-10T22:25:33.578Z,60.74
2023-01-10T22:27:59.904Z,60.54
2023-01-10T22:30:26.197Z,60.99
2023-01-10T22:32:52.475Z,59.30
2023-01-10T22:35:18.882Z,60.12
2023-01-10T22:37:45.176Z,59.88
2023-01-10T22:40:11.463Z,57.98
2023-01-10T22:42:37.780Z,58.02
2023-01-10T22:45:04.075Z,58.12
2023-01-10T22:47:30.357Z,59.27
2023-01-10T22:49:56.681Z,58.75
2023-01-10T22:52:22.973Z,58.79
2023-01-10T22:54:49.387Z,58.54
2023-01-10T22:57:15.699Z,57.73
2023-01-10T22:59:42.011Z,57.43
2023-01-10T23:02:08.324Z,57.79
2023-01-10T23:04:34.663Z,56.78
2023-01-10T23:07:01.006Z,56.43
2023-01-10T23:09:27.325Z,55.99
2023-01-10T23:11:53.689Z,56.52
2023-01-10T23:14:19.978Z,56.71
2023-01-10T23:16:46.362Z,56.79
2023-01-10T23:19:12.731Z,57.80
2023-01-10T23:21:39.031Z,58.28
2023-01-10T23:24:05.333Z,57.73
2023-01-10T23:26:31.649Z,57.58
2023-01-10T23:28:57.949Z,58.44
2023-01-10T23:31:24.305Z,58.84
2023-01-10T23:33:50.686Z,58.56
2023-01-10T23:36:16.966Z,59.46
2023-01-10T23:38:43.267Z,58.95
2023-01-10T23:41:09.584Z,58.69
2023-01-10T23:43:35.879Z,59.69
2023-01-10T23:46:02.326Z,58.63
2023-01-10T23:48:28.812Z,58.54
2023-01-10T23:50:55.143Z,59.36
2023-01-10T23:53:21.458Z,59.09
2023-01-10T23:55:47.857Z,59.41
2023-01-10T23:58:14.147Z,58.76
